Time;durP1;ratioP1;P1;durP2;ratioP2;P2;SDS_P1;SDS_P2;PMS_P1;PMS_P2;Temp;Humidity;BMP_temperature;BMP_pressure;BME280_temperature;BME280_humidity;BME280_pressure;Samples;Min_cycle;Max_cycle;Signal;HPM_P1;HPM_P2
2022/07/05 00:02:05;;;;;;;1.48;0.60;;;;;;;13.95;64.63;101301.88;5077725;28;20043;-71
2022/07/05 00:04:31;;;;;;;1.20;0.68;;;;;;;13.93;64.58;101310.56;5077581;28;20074;-71
2022/07/05 00:09:40;;;;;;;2.25;0.70;;;;;;;13.85;64.42;101303.66;5078043;28;20082;-71
2022/07/05 00:12:06;;;;;;;1.35;0.70;;;;;;;13.82;64.70;101303.44;5077581;28;20028;-71
2022/07/05 00:14:31;;;;;;;3.70;0.80;;;;;;;13.77;64.53;101312.69;5070481;28;20051;-71
2022/07/05 00:16:57;;;;;;;2.50;0.80;;;;;;;13.73;64.72;101310.75;5076355;28;20029;-71
2022/07/05 00:19:22;;;;;;;1.42;0.50;;;;;;;13.71;64.66;101307.47;5075021;28;20055;-71
2022/07/05 00:21:48;;;;;;;2.78;0.50;;;;;;;13.69;64.49;101318.09;5066213;28;20032;-71
2022/07/05 00:24:13;;;;;;;2.95;0.60;;;;;;;13.63;64.75;101306.97;5077536;28;20067;-71
2022/07/05 00:26:39;;;;;;;1.20;0.73;;;;;;;13.59;65.13;101311.47;5077274;28;20024;-71
2022/07/05 00:29:04;;;;;;;3.88;0.75;;;;;;;13.53;65.19;101312.63;5077227;28;20488;-71
2022/07/05 00:31:30;;;;;;;1.02;0.60;;;;;;;13.51;65.36;101311.25;5057082;28;20028;-71
2022/07/05 00:33:55;;;;;;;1.75;0.60;;;;;;;13.45;65.17;101316.06;5050687;28;20048;-71
2022/07/05 00:36:21;;;;;;;1.88;0.57;;;;;;;13.40;65.33;101313.34;5059108;28;20032;-71
2022/07/05 00:38:46;;;;;;;1.73;0.50;;;;;;;13.35;65.60;101310.59;5077252;28;20177;-71
2022/07/05 00:41:12;;;;;;;0.80;0.60;;;;;;;13.32;65.80;101308.41;5076937;28;20033;-71
2022/07/05 00:43:37;;;;;;;2.50;0.82;;;;;;;13.30;65.72;101307.84;5076998;28;20021;-71
2022/07/05 00:46:03;;;;;;;1.13;0.70;;;;;;;13.24;65.75;101309.84;5077086;28;20530;-71
2022/07/05 00:48:28;;;;;;;1.58;0.68;;;;;;;13.20;65.63;101305.94;5069648;28;20389;-71
2022/07/05 00:50:53;;;;;;;3.47;0.80;;;;;;;13.18;65.68;101306.25;5076977;28;20032;-71
2022/07/05 00:53:19;;;;;;;1.40;0.70;;;;;;;13.11;65.82;101305.75;5109480;27;20047;-71
2022/07/05 00:55:44;;;;;;;1.50;0.70;;;;;;;13.09;65.98;101308.00;5023936;28;20025;-71
2022/07/05 00:58:11;;;;;;;1.15;0.60;;;;;;;13.08;66.54;101305.50;5076393;28;20546;-71
2022/07/05 01:00:36;;;;;;;1.48;0.80;;;;;;;13.03;66.79;101303.56;5076839;28;20035;-71
2022/07/05 01:03:02;;;;;;;3.35;0.90;;;;;;;12.99;66.25;101291.34;5076483;28;20028;-71
2022/07/05 01:05:28;;;;;;;1.88;0.82;;;;;;;13.02;66.21;101307.50;5075830;28;20036;-71
2022/07/05 01:07:55;;;;;;;1.40;0.70;;;;;;;12.95;66.75;101295.84;5058727;28;20029;-71
2022/07/05 01:10:20;;;;;;;1.95;0.80;;;;;;;12.88;66.64;101306.50;5067842;28;20055;-71
2022/07/05 01:12:46;;;;;;;1.95;0.90;;;;;;;12.86;66.50;101297.59;5074810;28;20059;-71
2022/07/05 01:15:11;;;;;;;1.38;0.85;;;;;;;12.84;66.87;101295.09;5025494;28;20472;-71
2022/07/05 01:17:37;;;;;;;1.25;0.80;;;;;;;12.78;66.69;101301.81;5050244;28;20060;-71
2022/07/05 01:20:04;;;;;;;1.38;0.70;;;;;;;12.75;66.64;101292.06;5073473;28;20024;-71
2022/07/05 01:22:52;;;;;;;1.02;0.60;;;;;;;12.79;66.49;101291.50;5074291;28;20385;-71
2022/07/05 01:25:19;;;;;;;3.55;0.90;;;;;;;12.70;66.98;101289.34;5074884;28;20112;-71
2022/07/05 01:27:45;;;;;;;1.63;0.88;;;;;;;12.66;66.82;101293.00;5076134;28;20038;-71
2022/07/05 01:30:11;;;;;;;1.70;0.70;;;;;;;12.65;66.92;101291.34;5076122;28;20028;-71
2022/07/05 01:32:37;;;;;;;0.85;0.80;;;;;;;12.60;67.08;101295.00;5076048;28;20499;-71
2022/07/05 01:35:03;;;;;;;1.75;0.65;;;;;;;12.56;66.86;101293.06;5057952;28;20044;-71
2022/07/05 01:37:29;;;;;;;1.63;1.08;;;;;;;12.54;67.40;101296.16;5075041;28;20028;-71
2022/07/05 01:39:54;;;;;;;1.73;0.75;;;;;;;12.50;66.95;101298.66;5058031;28;20111;-71
2022/07/05 01:42:20;;;;;;;1.83;0.90;;;;;;;12.48;66.98;101297.28;5075992;28;20035;-71
2022/07/05 01:44:45;;;;;;;3.88;0.80;;;;;;;12.45;67.38;101297.84;5076148;28;20028;-71
2022/07/05 01:47:10;;;;;;;1.35;0.80;;;;;;;12.43;67.40;101300.13;5057799;28;20033;-71
2022/07/05 01:49:40;;;;;;;1.38;0.60;;;;;;;12.41;67.45;101296.78;5073064;28;20039;-71
2022/07/05 01:52:10;;;;;;;1.92;0.85;;;;;;;12.38;67.70;101298.19;5074590;28;20036;-71
2022/07/05 01:54:36;;;;;;;1.92;0.73;;;;;;;12.33;67.97;101305.72;5076375;28;20162;-71
2022/07/05 01:57:03;;;;;;;0.80;0.70;;;;;;;12.33;67.83;101302.94;5074249;28;20037;-71
2022/07/05 01:59:28;;;;;;;2.42;0.85;;;;;;;12.28;67.86;101301.84;5076142;28;20028;-71
2022/07/05 02:01:54;;;;;;;3.53;0.80;;;;;;;12.25;67.60;101299.63;5074696;28;20028;-71
2022/07/05 02:04:19;;;;;;;1.42;0.80;;;;;;;12.21;68.17;101304.13;5075959;28;20508;-71
2022/07/05 02:06:47;;;;;;;1.15;0.70;;;;;;;12.23;67.54;101301.03;5074552;28;20060;-71
2022/07/05 02:09:13;;;;;;;2.05;0.80;;;;;;;12.20;67.84;101304.38;5074677;28;20078;-71
2022/07/05 02:11:38;;;;;;;2.25;0.90;;;;;;;12.16;68.31;101293.00;5075683;28;20061;-71
2022/07/05 02:14:04;;;;;;;2.72;0.80;;;;;;;12.14;68.30;101294.41;5074537;28;20040;-71
2022/07/05 02:16:29;;;;;;;1.98;0.90;;;;;;;12.13;67.86;101299.13;5057712;28;20037;-71
2022/07/05 02:18:55;;;;;;;1.27;0.80;;;;;;;12.06;68.12;101302.25;5074334;28;20033;-71
2022/07/05 02:21:21;;;;;;;1.00;0.70;;;;;;;12.05;68.04;101300.56;5072884;28;20029;-71
2022/07/05 02:23:46;;;;;;;1.90;0.70;;;;;;;12.03;68.50;101304.75;5074340;28;20031;-71
2022/07/05 02:26:12;;;;;;;2.83;0.82;;;;;;;12.01;68.37;101296.69;5075861;28;20032;-71
2022/07/05 02:28:37;;;;;;;1.17;0.90;;;;;;;11.97;68.61;101301.16;5074165;28;20039;-71
2022/07/05 02:31:03;;;;;;;1.42;0.80;;;;;;;11.97;68.34;101298.38;5057900;28;20063;-71
2022/07/05 02:33:28;;;;;;;1.67;0.88;;;;;;;11.93;68.78;101294.50;5075489;28;20025;-71
2022/07/05 02:35:54;;;;;;;3.67;0.90;;;;;;;11.89;69.08;101292.56;5074216;28;20492;-71
2022/07/05 02:38:19;;;;;;;1.67;0.90;;;;;;;11.89;68.98;101289.75;5058105;28;20032;-71
2022/07/05 02:40:45;;;;;;;1.83;0.88;;;;;;;11.87;68.97;101289.22;5057780;28;20025;-71
2022/07/05 02:43:10;;;;;;;2.58;0.88;;;;;;;11.84;68.68;101287.81;5073717;28;20029;-71
2022/07/05 02:45:35;;;;;;;0.88;0.68;;;;;;;11.79;68.58;101290.63;5057933;28;20074;-71
2022/07/05 02:48:01;;;;;;;2.85;0.88;;;;;;;11.75;69.07;101295.06;5071461;28;20048;-71
2022/07/05 02:50:27;;;;;;;1.02;0.80;;;;;;;11.76;68.76;101294.78;5057520;28;20025;-71
2022/07/05 02:52:52;;;;;;;2.63;0.82;;;;;;;11.70;68.68;101295.94;5075526;28;20032;-71
2022/07/05 02:55:18;;;;;;;2.35;0.90;;;;;;;11.70;69.21;101293.16;5057447;28;20037;-71
2022/07/05 02:57:43;;;;;;;1.17;0.75;;;;;;;11.69;68.99;101290.63;5057282;28;20039;-71
2022/07/05 03:00:09;;;;;;;1.60;1.05;;;;;;;11.66;69.20;101286.47;5094045;28;20575;-71
2022/07/05 03:02:35;;;;;;;1.23;0.90;;;;;;;11.62;69.34;101294.56;5053854;28;20032;-71
2022/07/05 03:05:00;;;;;;;1.58;0.80;;;;;;;11.61;69.12;101292.03;5061003;28;20031;-71
2022/07/05 03:07:26;;;;;;;1.05;0.80;;;;;;;11.58;69.10;101298.19;5078912;28;20025;-71
2022/07/05 03:09:51;;;;;;;1.25;0.88;;;;;;;11.59;69.29;101303.47;5079181;28;20020;-71
2022/07/05 03:12:17;;;;;;;1.45;0.90;;;;;;;11.55;69.56;101301.53;5054739;28;20136;-71
2022/07/05 03:14:42;;;;;;;1.40;0.90;;;;;;;11.53;69.34;101301.81;5078024;28;20032;-71
2022/07/05 03:17:08;;;;;;;2.40;0.85;;;;;;;11.51;69.29;101294.88;5077702;28;20028;-71
2022/07/05 03:19:33;;;;;;;3.58;1.00;;;;;;;11.52;69.63;101288.19;5077466;28;20060;-71
2022/07/05 03:21:59;;;;;;;1.73;0.73;;;;;;;11.48;69.62;101287.91;5060618;28;20085;-71
2022/07/05 03:24:24;;;;;;;1.58;0.80;;;;;;;11.49;70.31;101291.53;5060665;28;20054;-71
2022/07/05 03:26:50;;;;;;;1.55;0.70;;;;;;;11.45;69.78;101290.41;5078476;28;20028;-71
2022/07/05 03:29:15;;;;;;;0.82;0.80;;;;;;;11.45;70.23;101296.81;5078345;28;20423;-71
2022/07/05 03:31:41;;;;;;;2.17;1.00;;;;;;;11.46;69.91;101294.88;5060698;28;20036;-71
2022/07/05 03:34:06;;;;;;;1.35;0.90;;;;;;;11.40;70.09;101297.66;5078330;28;20036;-71
2022/07/05 03:36:32;;;;;;;2.05;1.00;;;;;;;11.38;69.92;101296.28;5078338;28;20032;-71
2022/07/05 03:38:57;;;;;;;2.80;0.90;;;;;;;11.38;70.09;101304.63;5078252;28;20028;-71
2022/07/05 03:41:22;;;;;;;1.65;0.80;;;;;;;11.34;69.89;101307.13;5077864;28;20041;-71
2022/07/05 03:43:48;;;;;;;3.42;0.90;;;;;;;11.32;70.08;101306.56;5078196;28;20062;-71
2022/07/05 03:46:13;;;;;;;1.83;0.82;;;;;;;11.36;70.22;101315.19;5076998;28;20028;-71
2022/07/05 03:48:39;;;;;;;1.08;0.90;;;;;;;11.34;70.50;101312.69;5072820;28;20025;-71
2022/07/05 03:51:05;;;;;;;2.38;1.17;;;;;;;11.33;70.79;101316.56;5077921;28;20400;-71
2022/07/05 03:53:30;;;;;;;2.35;1.00;;;;;;;11.34;70.89;101312.69;5078422;28;20048;-71
2022/07/05 03:55:56;;;;;;;2.55;0.70;;;;;;;11.36;70.61;101315.19;5076653;28;20116;-71
2022/07/05 03:58:21;;;;;;;1.50;0.80;;;;;;;11.36;70.58;101313.22;5077511;28;20025;-71
2022/07/05 04:00:47;;;;;;;3.38;1.00;;;;;;;11.39;70.66;101317.41;5077855;28;20028;-71
2022/07/05 04:03:12;;;;;;;3.65;0.85;;;;;;;11.39;71.05;101315.47;5077579;28;20507;-71
2022/07/05 04:05:39;;;;;;;1.70;0.90;;;;;;;11.41;71.25;101313.22;5077456;28;20031;-71
2022/07/05 04:08:04;;;;;;;2.35;1.00;;;;;;;11.44;71.38;101314.59;5076337;28;20044;-71
2022/07/05 04:10:30;;;;;;;1.55;0.93;;;;;;;11.46;71.59;101326.31;5059797;28;20384;-71
2022/07/05 04:12:55;;;;;;;1.45;0.90;;;;;;;11.49;72.24;101322.13;5043362;28;20036;-71
2022/07/05 04:15:21;;;;;;;1.35;0.70;;;;;;;11.51;71.16;101317.94;5077506;28;20033;-71
2022/07/05 04:17:53;;;;;;;1.90;1.00;;;;;;;11.53;71.60;101321.28;5076675;28;20028;-71
2022/07/05 04:20:21;;;;;;;;;;;;;;;11.56;71.61;101322.66;5077937;28;20024;-71
2022/07/05 04:22:46;;;;;;;1.20;1.00;;;;;;;11.57;72.48;101324.34;5077444;28;19912;-71
2022/07/05 04:25:18;;;;;;;3.00;0.73;;;;;;;11.62;72.15;101325.16;5059731;28;20031;-71
2022/07/05 04:27:47;;;;;;;2.35;0.90;;;;;;;11.63;72.52;101320.44;5077353;28;20155;-71
2022/07/05 04:30:13;;;;;;;2.03;1.05;;;;;;;11.65;72.36;101328.50;5065016;28;20048;-71
2022/07/05 04:32:39;;;;;;;2.55;1.02;;;;;;;11.68;72.40;101325.16;5077543;28;20032;-71
2022/07/05 04:35:04;;;;;;;1.58;0.70;;;;;;;11.70;72.89;101337.69;5059244;28;20040;-71
2022/07/05 04:37:30;;;;;;;2.08;0.93;;;;;;;11.72;72.42;101334.59;5077318;28;20059;-71
2022/07/05 04:39:55;;;;;;;2.25;0.85;;;;;;;11.75;72.60;101334.03;5068648;28;20659;-71
2022/07/05 04:42:21;;;;;;;3.85;0.90;;;;;;;11.78;71.72;101334.31;5104449;28;20497;-71
2022/07/05 04:44:46;;;;;;;0.77;0.73;;;;;;;11.79;72.52;101335.97;5051041;28;20036;-71
2022/07/05 04:47:12;;;;;;;1.45;0.73;;;;;;;11.82;72.71;101338.19;5075562;28;20035;-71
2022/07/05 04:49:37;;;;;;;2.20;0.70;;;;;;;11.85;73.05;101331.22;5073801;28;20074;-71
2022/07/05 04:52:03;;;;;;;1.13;0.88;;;;;;;11.88;72.70;101338.22;5076885;28;20029;-71
2022/07/05 04:54:29;;;;;;;1.38;0.80;;;;;;;11.89;73.33;101345.44;5075251;28;20076;-71
2022/07/05 04:56:54;;;;;;;1.92;0.75;;;;;;;11.92;74.11;101342.09;5076544;28;20063;-71
2022/07/05 04:59:20;;;;;;;2.05;0.90;;;;;;;11.94;74.67;101343.47;5076764;28;20054;-71
2022/07/05 05:01:45;;;;;;;1.30;0.88;;;;;;;11.96;74.49;101348.78;5058710;28;20025;-71
2022/07/05 05:04:11;;;;;;;2.15;0.70;;;;;;;12.01;74.48;101346.81;5058793;28;20028;-71
2022/07/05 05:06:36;;;;;;;0.70;0.68;;;;;;;12.02;74.50;101356.81;5075287;28;20083;-71
2022/07/05 05:09:02;;;;;;;1.83;0.70;;;;;;;12.07;75.67;101347.63;5076252;28;20032;-71
2022/07/05 05:11:28;;;;;;;2.97;0.90;;;;;;;12.12;76.00;101349.53;5058736;28;20016;-71
2022/07/05 05:13:53;;;;;;;1.33;0.70;;;;;;;12.16;75.05;101354.25;5075279;28;20031;-71
2022/07/05 05:16:19;;;;;;;2.55;0.98;;;;;;;12.21;76.62;101359.00;5076242;28;20044;-71
2022/07/05 05:18:44;;;;;;;1.60;0.82;;;;;;;12.26;75.72;101368.16;5076244;28;20423;-71
2022/07/05 05:21:10;;;;;;;2.00;0.95;;;;;;;12.34;75.45;101358.38;5075071;28;20035;-71
2022/07/05 05:23:35;;;;;;;2.45;0.80;;;;;;;12.39;76.88;101365.88;5057612;28;20024;-71
2022/07/05 05:26:01;;;;;;;2.50;1.08;;;;;;;12.38;79.06;101365.03;5076427;28;20086;-71
2022/07/05 05:28:26;;;;;;;1.77;0.80;;;;;;;12.44;75.94;101365.84;5076081;28;20028;-71
2022/07/05 05:30:52;;;;;;;1.60;0.93;;;;;;;12.49;76.55;101365.81;5076166;28;20033;-71
2022/07/05 05:33:17;;;;;;;1.95;0.80;;;;;;;12.55;74.91;101363.84;5076227;28;20542;-71
2022/07/05 05:35:43;;;;;;;3.13;0.95;;;;;;;12.61;75.89;101371.06;5058716;28;20040;-71
2022/07/05 05:38:08;;;;;;;2.00;0.90;;;;;;;12.68;75.12;101366.84;5076057;28;20029;-71
2022/07/05 05:40:34;;;;;;;2.58;1.00;;;;;;;12.74;76.21;101371.25;5071550;28;20029;-71
2022/07/05 05:43:00;;;;;;;1.02;0.70;;;;;;;12.82;76.24;101380.97;5074188;28;20503;-71
2022/07/05 05:45:25;;;;;;;2.80;0.90;;;;;;;12.88;75.80;101368.66;5074688;28;20021;-71
2022/07/05 05:47:56;;;;;;;2.08;1.15;;;;;;;12.97;77.39;101380.03;5073185;28;20037;-71
2022/07/05 05:50:26;;;;;;;2.30;1.23;;;;;;;13.03;77.03;101372.47;5069695;28;20035;-71
2022/07/05 05:52:51;;;;;;;1.98;1.00;;;;;;;13.11;77.57;101381.03;5074964;28;20032;-71
2022/07/05 05:55:17;;;;;;;2.05;1.05;;;;;;;13.18;78.66;101389.94;5065488;28;20511;-71
2022/07/05 05:57:43;;;;;;;1.77;1.10;;;;;;;13.27;78.38;101386.56;5075547;28;20059;-71
2022/07/05 06:00:11;;;;;;;1.85;0.85;;;;;;;13.35;79.74;101386.75;5075902;28;20020;-71
2022/07/05 06:02:36;;;;;;;3.13;1.20;;;;;;;13.44;82.93;101389.75;5074878;28;20032;-71
2022/07/05 06:05:02;;;;;;;1.50;1.13;;;;;;;13.55;78.68;101391.31;5075715;28;20033;-71
2022/07/05 06:07:27;;;;;;;1.35;1.08;;;;;;;13.68;77.70;101387.03;5074173;28;20049;-71
2022/07/05 06:09:53;;;;;;;1.80;0.85;;;;;;;13.79;77.43;101388.59;5091472;28;20050;-71
2022/07/05 06:12:18;;;;;;;1.23;1.13;;;;;;;13.95;82.76;101392.06;5074682;28;20531;-71
2022/07/05 06:14:44;;;;;;;1.63;1.33;;;;;;;14.09;79.64;101390.22;5074533;28;20039;-71
2022/07/05 06:17:10;;;;;;;3.25;1.10;;;;;;;14.24;80.76;101392.03;5057598;28;20059;-71
2022/07/05 06:19:35;;;;;;;3.45;1.40;;;;;;;14.43;86.19;101392.06;5075533;28;20051;-71
2022/07/05 06:22:01;;;;;;;4.00;1.58;;;;;;;14.60;87.32;101393.56;5075622;28;20031;-69
2022/07/05 06:24:26;;;;;;;3.58;1.45;;;;;;;14.77;85.71;101396.69;5075658;28;20025;-72
2022/07/05 06:26:52;;;;;;;2.58;1.35;;;;;;;14.94;85.65;101396.16;5057390;28;20046;-71
2022/07/05 06:29:18;;;;;;;3.17;1.48;;;;;;;15.11;85.67;101406.84;5021501;28;20060;-71
2022/07/05 06:31:43;;;;;;;2.50;1.20;;;;;;;15.23;82.43;101403.56;5071640;28;20036;-71
2022/07/05 06:34:09;;;;;;;3.83;1.27;;;;;;;15.37;82.98;101405.28;5075775;28;20075;-71
2022/07/05 06:36:34;;;;;;;2.88;1.30;;;;;;;15.47;81.54;101404.28;5061878;28;20045;-71
2022/07/05 06:39:00;;;;;;;4.15;1.40;;;;;;;15.60;81.80;101411.91;5079427;28;20032;-71
2022/07/05 06:41:25;;;;;;;3.13;1.10;;;;;;;15.67;80.22;101414.31;5079075;28;20059;-71
2022/07/05 06:43:50;;;;;;;3.00;1.10;;;;;;;15.78;78.90;101421.44;5079390;28;20064;-71
2022/07/05 06:46:16;;;;;;;5.13;1.42;;;;;;;15.85;79.27;101427.47;5078102;28;20031;-71
2022/07/05 06:48:41;;;;;;;6.57;1.30;;;;;;;15.96;78.34;101424.47;5074538;28;20033;-71
2022/07/05 06:51:07;;;;;;;3.50;1.02;;;;;;;16.06;77.42;101418.69;5061181;28;20491;-71
2022/07/05 06:53:32;;;;;;;3.22;0.85;;;;;;;16.13;77.19;101424.72;5061180;28;20055;-71
2022/07/05 06:55:58;;;;;;;3.53;0.80;;;;;;;16.24;75.07;101426.19;5077393;28;20539;-71
2022/07/05 06:58:24;;;;;;;4.55;0.90;;;;;;;16.36;73.38;101436.88;5072878;28;20033;-71
2022/07/05 07:00:49;;;;;;;2.85;0.82;;;;;;;16.48;74.42;101437.19;5044900;28;20020;-71
2022/07/05 07:03:15;;;;;;;3.67;0.70;;;;;;;16.62;73.33;101445.59;5077993;28;20061;-71
2022/07/05 07:05:40;;;;;;;2.10;1.15;;;;;;;16.72;77.51;101445.41;5061169;28;20036;-71
2022/07/05 07:10:50;;;;;;;4.82;0.90;;;;;;;16.96;77.04;101444.34;5078696;28;20028;-71
2022/07/05 07:13:16;;;;;;;5.05;0.98;;;;;;;17.05;76.51;101442.47;5078781;28;20025;-71
2022/07/05 07:15:42;;;;;;;3.38;1.08;;;;;;;17.15;76.93;101444.19;5077190;28;20020;-71
2022/07/05 07:18:07;;;;;;;2.15;0.90;;;;;;;17.28;75.71;101446.16;5077494;28;20033;-71
2022/07/05 07:20:33;;;;;;;2.63;0.80;;;;;;;17.37;75.30;101443.41;5078988;28;20024;-71
2022/07/05 07:22:58;;;;;;;3.83;0.70;;;;;;;17.43;75.17;101442.97;5024511;28;20028;-71
2022/07/05 07:25:24;;;;;;;5.40;1.00;;;;;;;17.51;74.45;101449.78;5078143;28;20028;-71
2022/07/05 07:27:51;;;;;;;3.35;1.10;;;;;;;17.63;73.80;101452.03;5076517;28;20024;-71
2022/07/05 07:30:17;;;;;;;2.58;0.77;;;;;;;17.73;73.98;101450.97;5060750;28;20026;-71
2022/07/05 07:32:44;;;;;;;3.25;0.75;;;;;;;17.78;73.02;101460.13;5078270;28;20384;-71
2022/07/05 07:35:09;;;;;;;4.53;1.00;;;;;;;17.83;73.08;101451.56;5076981;28;20123;-71
2022/07/05 07:37:35;;;;;;;1.92;0.77;;;;;;;17.93;71.62;101452.44;5076916;28;20036;-71
2022/07/05 07:40:03;;;;;;;2.50;0.70;;;;;;;18.05;71.94;101456.34;5057365;28;20492;-71
2022/07/05 07:42:28;;;;;;;4.55;0.93;;;;;;;18.15;70.94;101460.84;5074070;28;20028;-70
2022/07/05 07:44:54;;;;;;;1.73;0.63;;;;;;;18.35;69.77;101453.00;5059506;28;20032;-71
2022/07/05 07:47:19;;;;;;;3.60;0.75;;;;;;;18.54;69.21;101453.56;5076478;28;20025;-71
2022/07/05 07:49:45;;;;;;;2.47;0.60;;;;;;;18.74;67.54;101455.00;5059484;28;20040;-71
2022/07/05 07:52:11;;;;;;;1.17;0.50;;;;;;;18.95;65.69;101441.97;5060122;28;20451;-71
2022/07/05 07:54:36;;;;;;;2.47;0.50;;;;;;;19.11;63.95;101447.09;5076598;28;20040;-71
2022/07/05 07:57:04;;;;;;;3.08;0.60;;;;;;;19.38;62.59;101446.81;5077673;28;20534;-71
2022/07/05 07:59:33;;;;;;;1.75;0.50;;;;;;;19.62;61.69;101442.66;5076712;28;20060;-71
2022/07/05 08:01:58;;;;;;;1.98;0.47;;;;;;;19.82;61.06;101439.19;5058492;28;20021;-71
2022/07/05 08:04:24;;;;;;;1.92;0.50;;;;;;;20.02;59.39;101431.16;5070583;28;20035;-71
2022/07/05 08:06:50;;;;;;;1.77;0.43;;;;;;;20.28;58.06;101431.94;5076516;28;20035;-71
2022/07/05 08:09:15;;;;;;;1.13;0.40;;;;;;;20.48;58.46;101441.63;5059892;28;20033;-71
2022/07/05 08:11:41;;;;;;;1.85;0.50;;;;;;;20.73;57.30;101439.88;5023678;28;20091;-71
2022/07/05 08:14:06;;;;;;;0.85;0.47;;;;;;;20.95;56.43;101444.41;5059800;28;20029;-71
2022/07/05 08:16:32;;;;;;;0.93;0.35;;;;;;;21.16;54.87;101452.06;5077548;28;20036;-71
2022/07/05 08:21:55;;;;;;;2.30;0.40;;;;;;;21.37;53.43;101446.47;5044873;28;20052;-71
2022/07/05 08:24:21;;;;;;;0.45;0.30;;;;;;;21.42;53.09;101458.38;5067272;28;20041;-71
2022/07/05 08:26:46;;;;;;;2.78;0.50;;;;;;;21.39;52.51;101458.22;5075698;28;20499;-71
2022/07/05 08:29:12;;;;;;;1.10;0.50;;;;;;;21.46;52.18;101460.50;5059544;28;20024;-70
2022/07/05 08:31:41;;;;;;;1.55;0.55;;;;;;;21.29;52.02;101459.44;5042683;28;20111;-71
2022/07/05 08:34:07;;;;;;;1.20;0.40;;;;;;;21.23;52.45;101465.63;5059708;28;20033;-71
2022/07/05 08:36:32;;;;;;;1.38;0.40;;;;;;;21.15;52.54;101465.34;5026413;28;20043;-70
2022/07/05 08:38:58;;;;;;;1.55;0.40;;;;;;;21.15;52.97;101470.19;5059481;28;20032;-70
2022/07/05 08:41:24;;;;;;;1.65;0.40;;;;;;;21.13;53.06;101467.69;5075993;28;20386;-70
2022/07/05 08:43:50;;;;;;;3.08;0.60;;;;;;;21.00;52.44;101459.47;5052807;28;20067;-70
2022/07/05 08:46:15;;;;;;;3.25;0.47;;;;;;;21.01;52.58;101464.78;5075694;28;20036;-70
2022/07/05 08:48:42;;;;;;;1.23;0.38;;;;;;;21.03;52.89;101462.44;5052117;28;20043;-70
2022/07/05 08:51:18;;;;;;;0.73;0.38;;;;;;;21.04;52.80;101464.09;5042312;28;20028;-70
2022/07/05 08:53:44;;;;;;;2.72;0.52;;;;;;;21.03;52.56;101464.44;5055072;28;20053;-70
2022/07/05 08:56:11;;;;;;;0.60;0.40;;;;;;;20.91;52.37;101460.34;5055555;28;20033;-70
2022/07/05 08:58:36;;;;;;;3.20;0.55;;;;;;;20.95;53.34;101461.34;5042405;28;20037;-71
2022/07/05 09:01:02;;;;;;;2.20;0.40;;;;;;;21.00;52.95;101453.81;5055889;28;20037;-71
2022/07/05 09:03:46;;;;;;;0.65;0.47;;;;;;;21.03;52.81;101451.13;5057067;28;20033;-70
2022/07/05 09:06:13;;;;;;;2.45;0.50;;;;;;;21.11;52.69;101450.25;5042530;28;20075;-71
2022/07/05 09:08:39;;;;;;;1.08;0.30;;;;;;;21.30;52.05;101448.97;5031598;28;20033;-71
2022/07/05 09:11:09;;;;;;;4.00;0.50;;;;;;;21.38;51.29;101450.91;5042158;28;20045;-71
2022/07/05 09:13:36;;;;;;;1.73;0.40;;;;;;;21.56;51.99;101445.94;5042548;28;20028;-71
2022/07/05 09:16:01;;;;;;;0.85;0.38;;;;;;;21.75;50.55;101442.59;5042082;28;20029;-70
2022/07/05 09:18:51;;;;;;;1.58;0.50;;;;;;;21.90;50.48;101450.44;5022608;28;20551;-70
2022/07/05 09:21:24;;;;;;;2.38;0.63;;;;;;;22.09;49.82;101452.72;5071532;28;20089;-70
2022/07/05 09:24:08;;;;;;;3.20;1.00;;;;;;;22.31;49.27;101448.66;5055095;28;20033;-70
2022/07/05 09:26:44;;;;;;;1.15;0.40;;;;;;;22.50;48.69;101445.28;5056063;28;20064;-71
2022/07/05 09:29:15;;;;;;;1.70;0.43;;;;;;;22.63;48.19;101454.63;5058852;28;20024;-71
2022/07/05 09:31:42;;;;;;;1.80;0.45;;;;;;;22.82;47.96;101445.53;5025716;28;20024;-70
2022/07/05 09:34:18;;;;;;;1.60;0.40;;;;;;;22.89;48.11;101452.22;5058429;28;20115;-71
2022/07/05 09:36:52;;;;;;;3.30;0.55;;;;;;;22.96;46.25;101457.34;5023530;28;20036;-71
2022/07/05 09:39:30;;;;;;;1.02;0.28;;;;;;;23.02;46.64;101452.25;5074930;28;20020;-71
2022/07/05 09:42:21;;;;;;;2.95;0.52;;;;;;;22.97;47.44;101453.31;5073859;28;20102;-71
2022/07/05 09:44:54;;;;;;;2.13;0.30;;;;;;;22.94;46.64;101449.16;5076023;28;20020;-70
2022/07/05 09:47:23;;;;;;;;;;;;;;;22.90;47.03;101441.72;5039059;28;20020;-70
2022/07/05 09:49:50;;;;;;;1.52;0.45;;;;;;;22.92;47.92;101440.19;5058211;28;19908;-71
2022/07/05 09:52:38;;;;;;;3.80;0.65;;;;;;;22.98;46.78;101443.63;5058319;28;20092;-72
2022/07/05 09:55:18;;;;;;;3.33;0.35;;;;;;;22.96;46.89;101451.69;5091264;28;20045;-71
2022/07/05 09:57:46;;;;;;;1.98;0.60;;;;;;;22.95;47.52;101439.50;5058116;28;20047;-70
2022/07/05 10:00:15;;;;;;;3.10;0.50;;;;;;;23.03;46.23;101453.91;5074693;28;20032;-70
2022/07/05 10:02:58;;;;;;;2.15;0.60;;;;;;;23.12;46.55;101448.91;5074351;28;20039;-70
2022/07/05 10:05:25;;;;;;;2.85;0.50;;;;;;;23.23;46.90;101455.75;5058837;28;20430;-70
2022/07/05 10:07:54;;;;;;;1.38;0.40;;;;;;;23.37;46.52;101453.38;5038357;28;20056;-71
2022/07/05 10:10:21;;;;;;;1.67;0.30;;;;;;;23.53;45.09;101456.25;5075466;28;20052;-71
2022/07/05 10:12:48;;;;;;;0.73;0.43;;;;;;;23.54;44.87;101459.91;5057656;28;20020;-70
2022/07/05 10:15:15;;;;;;;2.08;0.47;;;;;;;23.69;44.95;101439.31;5056279;28;20021;-71
2022/07/05 10:17:46;;;;;;;3.08;0.43;;;;;;;23.80;45.53;101442.47;5042944;28;20030;-71
2022/07/05 10:20:19;;;;;;;0.82;0.30;;;;;;;24.03;44.96;101434.19;5056785;28;20513;-71
2022/07/05 10:22:44;;;;;;;1.58;0.32;;;;;;;24.15;44.42;101431.28;5073659;28;20056;-71
2022/07/05 10:25:10;;;;;;;2.90;0.65;;;;;;;24.30;43.64;101435.31;5057777;28;20428;-71
2022/07/05 10:27:36;;;;;;;0.60;0.35;;;;;;;24.43;43.43;101441.72;5041063;28;20032;-70
2022/07/05 10:30:02;;;;;;;1.92;0.52;;;;;;;24.59;43.09;101441.75;5023040;28;20059;-71
2022/07/05 10:32:28;;;;;;;2.67;0.30;;;;;;;24.72;43.41;101441.28;5040942;28;20486;-71
2022/07/05 10:34:54;;;;;;;2.35;0.40;;;;;;;24.90;42.95;101433.19;5041279;28;20082;-71
2022/07/05 10:37:19;;;;;;;1.98;0.30;;;;;;;24.98;41.76;101437.84;5023265;28;20028;-71
2022/07/05 10:39:45;;;;;;;3.05;0.40;;;;;;;25.06;41.88;101441.69;5041015;28;20024;-71
2022/07/05 10:42:10;;;;;;;2.03;0.38;;;;;;;25.22;41.72;101446.53;5057308;28;20481;-71
2022/07/05 10:44:37;;;;;;;1.17;0.40;;;;;;;25.31;41.29;101444.28;5091375;28;20058;-71
2022/07/05 10:47:12;;;;;;;1.10;0.30;;;;;;;25.49;41.43;101448.38;5057591;28;20507;-71
2022/07/05 10:49:39;;;;;;;1.58;0.43;;;;;;;25.55;41.11;101446.03;5068449;28;20025;-71
2022/07/05 10:52:05;;;;;;;1.45;0.30;;;;;;;25.68;40.77;101435.31;5073171;28;20158;-71
2022/07/05 10:54:31;;;;;;;1.10;0.40;;;;;;;25.77;40.95;101444.44;5053727;28;20057;-71
2022/07/05 10:57:26;;;;;;;2.28;0.40;;;;;;;25.83;39.82;101432.41;5057261;28;20645;-71
2022/07/05 11:00:08;;;;;;;3.92;0.55;;;;;;;25.88;39.74;101441.84;5037253;28;20640;-71
2022/07/05 11:02:34;;;;;;;0.70;0.30;;;;;;;25.93;39.34;101436.66;5039155;28;20109;-71
2022/07/05 11:04:59;;;;;;;1.10;0.40;;;;;;;25.96;39.45;101450.13;5056890;28;20028;-71
2022/07/05 11:07:59;;;;;;;0.77;0.43;;;;;;;26.11;39.14;101436.19;5057371;28;20037;-71
2022/07/05 11:10:25;;;;;;;2.33;0.30;;;;;;;26.27;38.72;101440.56;5070712;28;20071;-71
2022/07/05 11:12:50;;;;;;;1.85;0.40;;;;;;;26.22;38.57;101435.19;5057477;28;20040;-71
2022/07/05 11:15:16;;;;;;;2.30;0.60;;;;;;;26.30;38.97;101433.28;5057666;28;20021;-71
2022/07/05 11:17:42;;;;;;;1.45;0.50;;;;;;;26.42;38.45;101440.81;5040835;28;20097;-71
2022/07/05 11:20:34;;;;;;;1.10;0.47;;;;;;;26.55;38.49;101425.22;5040428;28;20452;-71
2022/07/05 11:23:07;;;;;;;1.00;0.40;;;;;;;26.59;38.18;101430.97;5073024;28;20105;-71
2022/07/05 11:25:39;;;;;;;0.82;0.30;;;;;;;26.78;37.94;101430.88;5057978;28;20116;-71
2022/07/05 11:28:13;;;;;;;1.20;0.40;;;;;;;26.80;37.31;101422.75;5059845;28;20020;-71
2022/07/05 11:30:52;;;;;;;2.65;0.55;;;;;;;26.74;37.96;101429.97;5060809;28;20036;-71
2022/07/05 11:33:27;;;;;;;0.95;0.40;;;;;;;26.80;37.43;101428.47;5061002;28;20031;-71
2022/07/05 11:35:52;;;;;;;1.42;0.38;;;;;;;26.90;38.28;101424.94;5077169;28;20512;-71